Antonito, Colorado
Current Conditions -  °F | °C
As of 1:52 PM on Friday 28 Nov 2014 (Local Time) from KALS Reporting Station
Clear Clear  
Wind Chill: 14°   Ceiling: Unl
Heat Index: 14°   Visibility: 10mi
Dew Point: -11°   Wind: 6mph
Humidity: 18%   Direction: 260°W
Pressure: 30.09"   Gusts: NA
Location:  37.08°N, 106.01°W
Report Text: KALS 282052Z AUTO 26005KT 10SM CLR 14/M11 A3009 RMK AO2 SLP180 T01391106 56036
Loading
Personal Weather Stations






























Interactive Weather Map New forecast layout! Learn more

10-Day Weather Forecast

Advertisements
Track Severe Weather on mobile